sensor_id;sensor_type;location;lat;lon;timestamp;P1;durP1;ratioP1;P2;durP2;ratioP2
4575;SDS011;2300;51.874;8.430;2022-07-23T00:00:51;17.75;;;12.30;;
4575;SDS011;2300;51.874;8.430;2022-07-23T00:03:18;15.73;;;12.27;;
4575;SDS011;2300;51.874;8.430;2022-07-23T00:05:44;14.63;;;11.73;;
4575;SDS011;2300;51.874;8.430;2022-07-23T00:08:11;15.13;;;12.07;;
4575;SDS011;2300;51.874;8.430;2022-07-23T00:10:39;13.60;;;11.27;;
4575;SDS011;2300;51.874;8.430;2022-07-23T00:13:05;13.27;;;11.23;;
4575;SDS011;2300;51.874;8.430;2022-07-23T00:15:33;15.95;;;10.95;;
4575;SDS011;2300;51.874;8.430;2022-07-23T00:17:59;16.33;;;11.93;;
4575;SDS011;2300;51.874;8.430;2022-07-23T00:20:26;14.45;;;11.75;;
4575;SDS011;2300;51.874;8.430;2022-07-23T00:22:53;14.27;;;11.02;;
4575;SDS011;2300;51.874;8.430;2022-07-23T00:25:21;17.00;;;12.07;;
4575;SDS011;2300;51.874;8.430;2022-07-23T00:27:50;14.70;;;11.55;;
4575;SDS011;2300;51.874;8.430;2022-07-23T00:30:16;15.85;;;12.27;;
4575;SDS011;2300;51.874;8.430;2022-07-23T00:32:47;18.40;;;11.38;;
4575;SDS011;2300;51.874;8.430;2022-07-23T00:35:14;15.45;;;11.75;;
4575;SDS011;2300;51.874;8.430;2022-07-23T00:37:41;17.77;;;11.18;;
4575;SDS011;2300;51.874;8.430;2022-07-23T00:40:08;13.10;;;10.73;;
4575;SDS011;2300;51.874;8.430;2022-07-23T00:42:35;18.40;;;12.10;;
4575;SDS011;2300;51.874;8.430;2022-07-23T00:45:04;18.27;;;12.70;;
4575;SDS011;2300;51.874;8.430;2022-07-23T00:47:31;15.77;;;11.65;;
4575;SDS011;2300;51.874;8.430;2022-07-23T00:49:58;19.02;;;12.98;;
4575;SDS011;2300;51.874;8.430;2022-07-23T00:52:25;17.33;;;11.70;;
4575;SDS011;2300;51.874;8.430;2022-07-23T00:54:52;15.13;;;11.88;;
4575;SDS011;2300;51.874;8.430;2022-07-23T00:57:18;16.80;;;12.00;;
4575;SDS011;2300;51.874;8.430;2022-07-23T00:59:45;12.77;;;11.45;;
4575;SDS011;2300;51.874;8.430;2022-07-23T01:02:13;17.15;;;12.68;;
4575;SDS011;2300;51.874;8.430;2022-07-23T01:04:39;20.60;;;12.80;;
4575;SDS011;2300;51.874;8.430;2022-07-23T01:07:06;22.30;;;13.40;;
4575;SDS011;2300;51.874;8.430;2022-07-23T01:09:33;19.13;;;13.85;;
4575;SDS011;2300;51.874;8.430;2022-07-23T01:11:59;19.17;;;13.13;;
4575;SDS011;2300;51.874;8.430;2022-07-23T01:14:26;18.15;;;14.00;;
4575;SDS011;2300;51.874;8.430;2022-07-23T01:16:52;18.10;;;13.70;;
4575;SDS011;2300;51.874;8.430;2022-07-23T01:19:21;16.02;;;14.27;;
4575;SDS011;2300;51.874;8.430;2022-07-23T01:21:49;18.45;;;14.68;;
4575;SDS011;2300;51.874;8.430;2022-07-23T01:24:18;18.25;;;15.20;;
4575;SDS011;2300;51.874;8.430;2022-07-23T01:26:46;21.80;;;15.55;;
4575;SDS011;2300;51.874;8.430;2022-07-23T01:29:14;21.85;;;15.98;;
4575;SDS011;2300;51.874;8.430;2022-07-23T01:31:41;25.15;;;16.02;;
4575;SDS011;2300;51.874;8.430;2022-07-23T01:34:08;21.27;;;15.70;;
4575;SDS011;2300;51.874;8.430;2022-07-23T01:36:35;20.92;;;16.33;;
4575;SDS011;2300;51.874;8.430;2022-07-23T01:39:02;22.77;;;16.95;;
4575;SDS011;2300;51.874;8.430;2022-07-23T01:41:31;26.63;;;16.73;;
4575;SDS011;2300;51.874;8.430;2022-07-23T01:43:58;24.27;;;17.52;;
4575;SDS011;2300;51.874;8.430;2022-07-23T01:46:25;23.73;;;17.83;;
4575;SDS011;2300;51.874;8.430;2022-07-23T01:48:52;25.95;;;18.13;;
4575;SDS011;2300;51.874;8.430;2022-07-23T01:51:18;24.30;;;18.45;;
4575;SDS011;2300;51.874;8.430;2022-07-23T01:53:45;25.42;;;19.00;;
4575;SDS011;2300;51.874;8.430;2022-07-23T01:56:12;26.23;;;18.73;;
4575;SDS011;2300;51.874;8.430;2022-07-23T01:58:41;24.50;;;18.83;;
4575;SDS011;2300;51.874;8.430;2022-07-23T02:01:08;27.15;;;18.45;;
4575;SDS011;2300;51.874;8.430;2022-07-23T02:03:34;26.95;;;18.27;;
4575;SDS011;2300;51.874;8.430;2022-07-23T02:06:01;28.42;;;19.33;;
4575;SDS011;2300;51.874;8.430;2022-07-23T02:08:28;28.30;;;19.50;;
4575;SDS011;2300;51.874;8.430;2022-07-23T02:10:54;23.27;;;18.48;;
4575;SDS011;2300;51.874;8.430;2022-07-23T02:13:21;25.42;;;19.98;;
4575;SDS011;2300;51.874;8.430;2022-07-23T02:15:50;24.88;;;19.27;;
4575;SDS011;2300;51.874;8.430;2022-07-23T02:18:18;25.00;;;19.50;;
4575;SDS011;2300;51.874;8.430;2022-07-23T02:20:44;26.38;;;18.67;;
4575;SDS011;2300;51.874;8.430;2022-07-23T02:23:11;22.50;;;18.33;;
4575;SDS011;2300;51.874;8.430;2022-07-23T02:25:38;23.75;;;17.83;;
4575;SDS011;2300;51.874;8.430;2022-07-23T02:28:04;24.75;;;18.10;;
4575;SDS011;2300;51.874;8.430;2022-07-23T02:30:31;25.35;;;19.02;;
4575;SDS011;2300;51.874;8.430;2022-07-23T02:32:59;28.98;;;19.75;;
4575;SDS011;2300;51.874;8.430;2022-07-23T02:35:26;24.40;;;18.10;;
4575;SDS011;2300;51.874;8.430;2022-07-23T02:37:52;26.83;;;19.60;;
4575;SDS011;2300;51.874;8.430;2022-07-23T02:40:19;23.30;;;19.13;;
4575;SDS011;2300;51.874;8.430;2022-07-23T02:42:46;25.23;;;19.52;;
4575;SDS011;2300;51.874;8.430;2022-07-23T02:45:12;23.20;;;19.02;;
4575;SDS011;2300;51.874;8.430;2022-07-23T02:47:39;23.05;;;18.98;;
4575;SDS011;2300;51.874;8.430;2022-07-23T02:50:08;22.27;;;18.88;;
4575;SDS011;2300;51.874;8.430;2022-07-23T02:52:35;26.35;;;19.40;;
4575;SDS011;2300;51.874;8.430;2022-07-23T02:55:02;26.58;;;19.63;;
4575;SDS011;2300;51.874;8.430;2022-07-23T02:57:29;23.15;;;18.55;;
4575;SDS011;2300;51.874;8.430;2022-07-23T02:59:56;19.55;;;17.23;;
4575;SDS011;2300;51.874;8.430;2022-07-23T03:02:23;23.30;;;18.33;;
4575;SDS011;2300;51.874;8.430;2022-07-23T03:04:49;23.73;;;18.20;;
4575;SDS011;2300;51.874;8.430;2022-07-23T03:07:17;26.52;;;19.33;;
4575;SDS011;2300;51.874;8.430;2022-07-23T03:09:44;25.55;;;17.98;;
4575;SDS011;2300;51.874;8.430;2022-07-23T03:12:11;28.23;;;19.58;;
4575;SDS011;2300;51.874;8.430;2022-07-23T03:14:38;28.75;;;18.83;;
4575;SDS011;2300;51.874;8.430;2022-07-23T03:17:04;28.70;;;20.10;;
4575;SDS011;2300;51.874;8.430;2022-07-23T03:19:31;25.20;;;19.52;;
4575;SDS011;2300;51.874;8.430;2022-07-23T03:21:58;34.20;;;21.92;;
4575;SDS011;2300;51.874;8.430;2022-07-23T03:24:26;30.75;;;22.42;;
4575;SDS011;2300;51.874;8.430;2022-07-23T03:27:13;34.70;;;22.92;;
4575;SDS011;2300;51.874;8.430;2022-07-23T03:29:40;32.90;;;23.30;;
4575;SDS011;2300;51.874;8.430;2022-07-23T03:32:07;28.00;;;21.55;;
4575;SDS011;2300;51.874;8.430;2022-07-23T03:34:34;29.85;;;21.48;;
4575;SDS011;2300;51.874;8.430;2022-07-23T03:37:01;30.83;;;22.92;;
4575;SDS011;2300;51.874;8.430;2022-07-23T03:39:29;28.25;;;21.75;;
4575;SDS011;2300;51.874;8.430;2022-07-23T03:41:56;27.15;;;20.70;;
4575;SDS011;2300;51.874;8.430;2022-07-23T03:44:23;22.67;;;19.90;;
4575;SDS011;2300;51.874;8.430;2022-07-23T03:46:50;29.48;;;20.98;;
4575;SDS011;2300;51.874;8.430;2022-07-23T03:49:16;30.58;;;21.80;;
4575;SDS011;2300;51.874;8.430;2022-07-23T03:51:43;27.60;;;21.10;;
4575;SDS011;2300;51.874;8.430;2022-07-23T03:54:09;27.40;;;21.90;;
4575;SDS011;2300;51.874;8.430;2022-07-23T03:56:38;25.00;;;19.90;;
4575;SDS011;2300;51.874;8.430;2022-07-23T03:59:04;25.52;;;20.23;;
4575;SDS011;2300;51.874;8.430;2022-07-23T04:01:31;26.58;;;20.92;;
4575;SDS011;2300;51.874;8.430;2022-07-23T04:03:58;26.55;;;20.38;;
4575;SDS011;2300;51.874;8.430;2022-07-23T04:06:25;23.05;;;18.80;;
4575;SDS011;2300;51.874;8.430;2022-07-23T04:08:51;25.05;;;20.13;;
4575;SDS011;2300;51.874;8.430;2022-07-23T04:11:18;23.77;;;20.10;;
4575;SDS011;2300;51.874;8.430;2022-07-23T04:13:47;24.80;;;20.05;;
4575;SDS011;2300;51.874;8.430;2022-07-23T04:16:13;26.05;;;21.10;;
4575;SDS011;2300;51.874;8.430;2022-07-23T04:18:40;24.55;;;20.20;;
4575;SDS011;2300;51.874;8.430;2022-07-23T04:21:07;26.85;;;20.67;;
4575;SDS011;2300;51.874;8.430;2022-07-23T04:23:34;24.65;;;20.60;;
4575;SDS011;2300;51.874;8.430;2022-07-23T04:26:00;24.15;;;20.52;;
4575;SDS011;2300;51.874;8.430;2022-07-23T04:28:27;25.15;;;20.38;;
4575;SDS011;2300;51.874;8.430;2022-07-23T04:30:56;25.67;;;20.33;;
4575;SDS011;2300;51.874;8.430;2022-07-23T04:33:24;25.63;;;20.60;;
4575;SDS011;2300;51.874;8.430;2022-07-23T04:35:50;29.48;;;21.85;;
4575;SDS011;2300;51.874;8.430;2022-07-23T04:38:17;28.52;;;21.60;;
4575;SDS011;2300;51.874;8.430;2022-07-23T04:40:44;26.45;;;21.33;;
4575;SDS011;2300;51.874;8.430;2022-07-23T04:43:11;31.25;;;20.50;;
4575;SDS011;2300;51.874;8.430;2022-07-23T04:45:37;30.30;;;20.58;;
4575;SDS011;2300;51.874;8.430;2022-07-23T04:48:05;26.80;;;20.83;;
4575;SDS011;2300;51.874;8.430;2022-07-23T04:50:32;27.52;;;21.35;;
4575;SDS011;2300;51.874;8.430;2022-07-23T04:52:59;28.48;;;20.70;;
4575;SDS011;2300;51.874;8.430;2022-07-23T04:55:26;27.60;;;19.63;;
4575;SDS011;2300;51.874;8.430;2022-07-23T04:57:52;24.27;;;19.05;;
4575;SDS011;2300;51.874;8.430;2022-07-23T05:00:19;20.70;;;18.27;;
4575;SDS011;2300;51.874;8.430;2022-07-23T05:02:47;22.33;;;17.98;;
4575;SDS011;2300;51.874;8.430;2022-07-23T05:05:15;21.17;;;17.90;;
4575;SDS011;2300;51.874;8.430;2022-07-23T05:07:42;19.88;;;16.33;;
4575;SDS011;2300;51.874;8.430;2022-07-23T05:10:09;29.27;;;16.05;;
4575;SDS011;2300;51.874;8.430;2022-07-23T05:12:35;19.70;;;15.60;;
4575;SDS011;2300;51.874;8.430;2022-07-23T05:15:02;23.58;;;16.45;;
4575;SDS011;2300;51.874;8.430;2022-07-23T05:17:29;21.08;;;15.52;;
4575;SDS011;2300;51.874;8.430;2022-07-23T05:19:56;19.02;;;14.70;;
4575;SDS011;2300;51.874;8.430;2022-07-23T05:22:24;18.48;;;14.48;;
4575;SDS011;2300;51.874;8.430;2022-07-23T05:24:51;17.92;;;12.90;;
4575;SDS011;2300;51.874;8.430;2022-07-23T05:27:17;16.42;;;11.65;;
4575;SDS011;2300;51.874;8.430;2022-07-23T05:29:44;15.38;;;11.32;;
4575;SDS011;2300;51.874;8.430;2022-07-23T05:32:11;12.80;;;9.40;;
4575;SDS011;2300;51.874;8.430;2022-07-23T05:34:38;11.50;;;9.27;;
4575;SDS011;2300;51.874;8.430;2022-07-23T05:37:05;12.32;;;9.05;;
4575;SDS011;2300;51.874;8.430;2022-07-23T05:39:33;12.98;;;9.23;;
4575;SDS011;2300;51.874;8.430;2022-07-23T05:41:59;13.85;;;8.88;;
4575;SDS011;2300;51.874;8.430;2022-07-23T05:44:26;12.15;;;9.23;;
4575;SDS011;2300;51.874;8.430;2022-07-23T05:46:53;12.38;;;8.60;;
4575;SDS011;2300;51.874;8.430;2022-07-23T05:49:19;13.75;;;8.38;;
4575;SDS011;2300;51.874;8.430;2022-07-23T05:51:46;13.77;;;9.68;;
4575;SDS011;2300;51.874;8.430;2022-07-23T05:54:12;15.32;;;8.18;;
4575;SDS011;2300;51.874;8.430;2022-07-23T05:56:40;12.60;;;8.30;;
4575;SDS011;2300;51.874;8.430;2022-07-23T05:59:07;9.70;;;7.50;;
4575;SDS011;2300;51.874;8.430;2022-07-23T06:01:34;10.18;;;7.40;;
4575;SDS011;2300;51.874;8.430;2022-07-23T06:04:00;13.40;;;8.73;;
4575;SDS011;2300;51.874;8.430;2022-07-23T06:06:27;13.88;;;9.02;;
4575;SDS011;2300;51.874;8.430;2022-07-23T06:08:53;12.40;;;9.15;;
4575;SDS011;2300;51.874;8.430;2022-07-23T06:11:20;12.88;;;8.63;;
4575;SDS011;2300;51.874;8.430;2022-07-23T06:13:48;9.27;;;7.80;;
4575;SDS011;2300;51.874;8.430;2022-07-23T06:16:14;12.23;;;8.23;;
4575;SDS011;2300;51.874;8.430;2022-07-23T06:18:41;9.77;;;7.75;;
4575;SDS011;2300;51.874;8.430;2022-07-23T06:21:08;13.60;;;7.65;;
4575;SDS011;2300;51.874;8.430;2022-07-23T06:23:35;12.15;;;8.13;;
4575;SDS011;2300;51.874;8.430;2022-07-23T06:26:02;12.40;;;8.07;;
4575;SDS011;2300;51.874;8.430;2022-07-23T06:28:29;11.40;;;7.10;;
4575;SDS011;2300;51.874;8.430;2022-07-23T06:30:57;12.85;;;8.18;;
4575;SDS011;2300;51.874;8.430;2022-07-23T06:33:24;11.70;;;8.88;;
4575;SDS011;2300;51.874;8.430;2022-07-23T06:35:51;15.43;;;11.15;;
4575;SDS011;2300;51.874;8.430;2022-07-23T06:38:17;11.88;;;8.02;;
4575;SDS011;2300;51.874;8.430;2022-07-23T06:40:44;13.43;;;8.63;;
4575;SDS011;2300;51.874;8.430;2022-07-23T06:43:11;11.98;;;7.88;;
4575;SDS011;2300;51.874;8.430;2022-07-23T06:45:37;11.48;;;7.28;;
4575;SDS011;2300;51.874;8.430;2022-07-23T06:48:05;12.00;;;6.97;;
4575;SDS011;2300;51.874;8.430;2022-07-23T06:50:32;10.85;;;7.05;;
4575;SDS011;2300;51.874;8.430;2022-07-23T06:52:59;10.20;;;6.47;;
4575;SDS011;2300;51.874;8.430;2022-07-23T06:55:26;8.70;;;6.07;;
4575;SDS011;2300;51.874;8.430;2022-07-23T06:57:52;10.73;;;6.95;;
4575;SDS011;2300;51.874;8.430;2022-07-23T07:00:19;10.82;;;6.88;;
4575;SDS011;2300;51.874;8.430;2022-07-23T07:02:45;11.07;;;7.60;;
4575;SDS011;2300;51.874;8.430;2022-07-23T07:05:13;10.27;;;7.05;;
4575;SDS011;2300;51.874;8.430;2022-07-23T07:07:40;10.73;;;6.45;;
4575;SDS011;2300;51.874;8.430;2022-07-23T07:10:07;9.57;;;6.60;;
4575;SDS011;2300;51.874;8.430;2022-07-23T07:12:34;10.70;;;7.18;;
4575;SDS011;2300;51.874;8.430;2022-07-23T07:15:00;13.45;;;7.03;;
